Data for 11/03/2009

Time Sea-Level Adjusted Pressure Absolute Pressure Temperature Relative Humidity Dew Point   
(mb) (inHg) (mb) (inHg) (C) (F) (%) (C) (F)
00:05 1022 30.18 851 25.13 3.8 38.9 52 -5.2 22.7
00:10 1022 30.18 851 25.13 3.8 38.9 49 -5.8 21.5
00:15 1022 30.18 851 25.13 3.8 38.9 50 -5.6 22
00:20 1022 30.18 851 25.13 3.8 38.8 50 -5.6 21.9
00:25 1022 30.18 851 25.13 3.8 38.9 50 -5.6 21.9
00:30 1022 30.18 851 25.13 4 39.1 49 -5.9 21.5
00:35 1022 30.18 851 25.13 4.2 39.6 46 -6.3 20.7
00:40 1022 30.18 851 25.13 4.7 40.4 46 -6.1 21.1
00:45 1022 30.18 851 25.13 4.6 40.3 47 -5.7 21.8
00:50 1022 30.18 851 25.13 4.2 39.6 49 -5.4 22.2
00:55 1022 30.18 851 25.13 4 39.3 49 -5.7 21.8
01:00 1022 30.18 851 25.13 4 39.3 50 -5.4 22.2
01:05 1022 30.18 851 25.13 3.7 38.7 52 -5.3 22.5
01:10 1022 30.18 851 25.13 4.2 39.6 47 -6.1 21
01:15 1022 30.18 851 25.13 4.4 39.8 50 -5.2 22.7
01:20 1022 30.18 851 25.13 3.9 39 51 -5.2 22.6
01:25 1022 30.18 851 25.13 4 39.3 45 -7 19.5
01:30 1022 30.18 851 25.13 4.8 40.7 48 -5.2 22.7
01:35 1022 30.18 851 25.13 4.2 39.6 50 -5.4 22.3
01:40 1022 30.18 851 25.13 4.3 39.7 48 -5.7 21.8
01:45 1022 30.18 851 25.13 4.2 39.6 50 -5.2 22.7
01:50 1022 30.18 851 25.13 3.9 38.9 51 -5.3 22.5
01:55 1022 30.18 851 25.13 3.8 38.9 50 -5.7 21.8
02:00 1022 30.18 851 25.13 4.3 39.7 46 -6.5 20.3
02:05 1022 30.18 851 25.13 4.7 40.5 47 -5.6 21.8
02:10 1022 30.18 851 25.13 4.8 40.6 47 -5.7 21.8
02:15 1022 30.18 851 25.13 4.3 39.7 50 -5.2 22.6
02:20 1022 30.18 851 25.13 4.3 39.7 46 -6.4 20.6
02:25 1022 30.18 851 25.13 4.6 40.3 51 -4.6 23.7
02:30 1022 30.18 851 25.13 3.7 38.6 55 -4.6 23.6
02:35 1022 30.18 851 25.13 3.6 38.5 53 -5.1 22.9
02:40 1022 30.18 851 25.13 3.7 38.6 55 -4.6 23.6
02:45 1022 30.18 851 25.13 3.5 38.3 51 -5.6 21.9
02:50 1022 30.18 852 25.16 4 39.1 50 -5.4 22.2
02:55 1022 30.18 852 25.16 4.1 39.4 49 -5.6 22
03:00 1022 30.18 852 25.16 4.3 39.7 52 -4.8 23.3
03:05 1022 30.18 852 25.16 4 39.2 54 -4.6 23.8
03:10 1022 30.18 852 25.16 3.7 38.6 54 -4.9 23.2
03:15 1022 30.18 852 25.16 3.7 38.6 53 -5 23.1
03:20 1022 30.18 852 25.16 3.6 38.5 54 -4.8 23.3
03:25 1022 30.18 852 25.16 3.4 38.2 55 -4.7 23.5
03:30 1022 30.18 852 25.16 3.3 38 54 -5 23
03:35 1023 30.21 852 25.16 3.5 38.4 53 -5.2 22.6
03:40 1023 30.21 852 25.16 3.6 38.5 55 -4.5 24
03:45 1023 30.21 852 25.16 3.3 38 55 -5 23.1
03:50 1023 30.21 852 25.16 3.1 37.5 56 -4.8 23.4
03:55 1023 30.21 852 25.16 3 37.4 57 -4.8 23.4
04:00 1023 30.21 852 25.16 2.8 37.1 55 -5.4 22.3
04:05 1023 30.21 852 25.16 3.2 37.8 51 -6 21.1
04:10 1023 30.21 852 25.16 3.4 38.1 52 -5.6 22
04:15 1023 30.21 852 25.16 3.1 37.6 52 -5.9 21.4
04:20 1023 30.21 852 25.16 3.1 37.5 55 -5.1 22.9
04:25 1023 30.21 852 25.16 2.7 36.9 56 -5.2 22.6
04:30 1023 30.21 852 25.16 2.7 36.9 56 -5.2 22.6
04:35 1023 30.21 852 25.16 2.7 36.8 55 -5.5 22
04:40 1023 30.21 852 25.16 2.7 36.9 56 -5.1 22.7
04:45 1023 30.21 852 25.16 2.5 36.4 58 -5 23
04:50 1023 30.21 852 25.16 2.1 35.7 58 -5.3 22.5
04:55 1023 30.21 852 25.16 2.1 35.9 60 -4.8 23.3
05:00 1023 30.21 853 25.19 1.8 35.3 63 -4.4 24.1
05:05 1023 30.21 852 25.16 1.7 35 61 -5 23.1
05:10 1023 30.21 853 25.19 1.9 35.5 60 -4.9 23.1
05:15 1023 30.21 853 25.19 2.4 36.3 53 -6.2 20.9
05:20 1023 30.21 853 25.19 3 37.3 52 -6 21.3
05:25 1023 30.21 853 25.19 3.1 37.6 52 -5.8 21.5
05:30 1023 30.21 853 25.19 3 37.4 53 -5.8 21.6
05:35 1023 30.21 853 25.19 3.2 37.7 51 -6.1 21.1
05:40 1023 30.21 853 25.19 3.3 38 51 -5.9 21.4
05:45 1023 30.21 853 25.19 3.2 37.8 52 -5.7 21.7
05:50 1024 30.24 853 25.19 2.8 37 50 -6.7 19.9
05:55 1023 30.21 853 25.19 3.5 38.3 45 -7.3 18.9
06:00 1023 30.21 853 25.19 3.9 39 45 -7.1 19.3
06:05 1023 30.21 853 25.19 3.9 39 47 -6.4 20.4
06:10 1023 30.21 853 25.19 3.6 38.4 48 -6.6 20.2
06:15 1023 30.21 853 25.19 3.4 38.1 50 -6.2 20.8
06:20 1024 30.24 853 25.19 2.8 37.1 51 -6.4 20.5
06:25 1024 30.24 853 25.19 2.8 37 51 -6.5 20.3
06:30 1024 30.24 853 25.19 2.5 36.5 53 -6.1 21.1
06:35 1024 30.24 853 25.19 2.2 35.9 55 -5.9 21.4
06:40 1024 30.24 853 25.19 2.1 35.8 53 -6.4 20.5
06:45 1024 30.24 853 25.19 2.3 36.1 53 -6.4 20.4
06:50 1024 30.24 853 25.19 2.3 36.1 54 -6.1 21
06:55 1024 30.24 853 25.19 2.1 35.8 55 -6.1 21.1
07:00 1024 30.24 853 25.19 1.7 35 56 -6.1 21
07:05 1024 30.24 853 25.19 1.4 34.6 56 -6.4 20.6
07:10 1024 30.24 853 25.19 1.6 34.9 56 -6.2 20.8
07:15 1024 30.24 853 25.19 1.9 35.4 56 -5.9 21.4
07:20 1024 30.24 853 25.19 2 35.6 56 -5.8 21.5
07:25 1024 30.24 853 25.19 1.8 35.2 57 -5.9 21.4
07:30 1024 30.24 853 25.19 1.5 34.8 58 -6 21.3
07:35 1024 30.24 853 25.19 1.3 34.4 59 -5.9 21.4
07:40 1024 30.24 853 25.19 1.4 34.5 59 -5.8 21.5
07:45 1024 30.24 853 25.19 1.4 34.6 59 -5.7 21.7
07:50 1024 30.24 853 25.19 1.6 34.9 58 -5.8 21.5
07:55 1024 30.24 853 25.19 2 35.6 56 -5.8 21.6
08:00 1024 30.24 853 25.19 2.3 36.1 56 -5.7 21.8
08:05 1024 30.24 853 25.19 2.6 36.6 55 -5.6 22
08:10 1024 30.24 853 25.19 2.7 36.8 55 -5.4 22.3
08:15 1024 30.24 853 25.19 2.8 37.1 55 -5.3 22.5
08:20 1024 30.24 853 25.19 3 37.3 56 -5.1 22.9
08:25 1024 30.24 853 25.19 3 37.5 57 -4.7 23.5
08:30 1024 30.24 853 25.19 3.3 37.9 55 -4.9 23.1
08:35 1024 30.24 853 25.19 3.8 38.9 51 -5.3 22.4
08:40 1024 30.24 853 25.19 4.3 39.8 50 -5.3 22.5
08:45 1024 30.24 853 25.19 4.8 40.7 47 -5.6 22
08:50 1024 30.24 853 25.19 5.2 41.4 47 -5.3 22.5
08:55 1024 30.24 853 25.19 5.7 42.2 45 -5.2 22.6
09:00 1024 30.24 854 25.22 5.5 42 48 -4.7 23.5
09:05 1024 30.24 854 25.22 6.3 43.4 42 -5.7 21.7
09:10 1024 30.24 854 25.22 7 44.6 37 -6.6 20.1
09:15 1024 30.24 854 25.22 7.6 45.7 35 -6.7 19.9
09:20 1025 30.27 854 25.22 8.1 46.5 35 -6.5 20.4
09:25 1024 30.24 854 25.22 8.5 47.3 33 -7 19.4
09:30 1024 30.24 854 25.22 8.6 47.6 32 -7.1 19.2
09:35 1025 30.27 854 25.22 8.6 47.5 32 -7.2 19
09:40 1025 30.27 854 25.22 8.6 47.5 32 -7 19.4
09:45 1025 30.27 854 25.22 8.8 47.8 32 -7.2 19
09:50 1025 30.27 854 25.22 8.7 47.6 31 -7.4 18.6
09:55 1025 30.27 854 25.22 8.9 48 31 -7.4 18.6
10:00 1025 30.27 854 25.22 8.8 47.8 32 -7.2 19
10:05 1025 30.27 854 25.22 8.6 47.4 32 -7.3 18.9
10:10 1025 30.27 854 25.22 8.6 47.4 32 -7 19.4
10:15 1025 30.27 854 25.22 9.1 48.4 32 -6.7 19.9
10:20 1025 30.27 854 25.22 9.1 48.3 33 -6.3 20.7
10:25 1025 30.27 854 25.22 8.5 47.3 36 -5.8 21.5
10:30 1025 30.27 854 25.22 8.2 46.7 36 -5.9 21.3
10:35 1025 30.27 854 25.22 8.4 47 35 -6.1 21
10:40 1025 30.27 854 25.22 8.5 47.2 34 -6.6 20.1
10:45 1025 30.27 854 25.22 8.8 47.8 33 -6.7 19.9
10:50 1025 30.27 854 25.22 8.8 47.8 34 -6.1 21
10:55 1025 30.27 854 25.22 8.9 48 34 -6.3 20.7
11:00 1025 30.27 854 25.22 8.8 47.8 35 -5.8 21.5
11:05 1025 30.27 854 25.22 8.7 47.6 35 -6 21.2
11:10 1025 30.27 854 25.22 8.3 46.9 36 -6 21.3
11:15 1025 30.27 854 25.22 9.2 48.5 34 -6 21.2
11:20 1025 30.27 854 25.22 9.7 49.5 33 -5.7 21.7
11:25 1025 30.27 854 25.22 9.4 49 34 -5.7 21.7
11:30 1025 30.27 854 25.22 9.5 49 33 -5.8 21.5
11:35 1025 30.27 854 25.22 9.2 48.5 33 -6.2 20.8
11:40 1025 30.27 854 25.22 9.6 49.3 34 -5.6 22
11:45 1025 30.27 854 25.22 9.5 49 31 -6.6 20.1
11:50 1025 30.27 854 25.22 8.9 48 32 -7.1 19.3
11:55 1025 30.27 854 25.22 9.1 48.4 31 -7.1 19.2
12:00 1025 30.27 854 25.22 9.2 48.6 30 -7.4 18.7
12:05 1025 30.27 854 25.22 9.3 48.7 31 -7.1 19.3
12:10 1025 30.27 854 25.22 9.1 48.3 32 -6.7 20
12:15 1025 30.27 854 25.22 8.9 48.1 32 -7 19.4
12:20 1024 30.24 854 25.22 9.5 49 31 -6.7 20
12:25 1024 30.24 854 25.22 9.6 49.2 30 -7 19.3
12:30 1024 30.24 854 25.22 9.4 49 31 -6.8 19.8
12:35 1024 30.24 854 25.22 9.5 49.1 30 -7 19.3
12:40 1024 30.24 854 25.22 9.6 49.3 31 -6.8 19.8
12:45 1024 30.24 854 25.22 9.8 49.7 31 -6.6 20.2
12:50 1024 30.24 854 25.22 9.9 49.8 30 -6.7 19.9
12:55 1024 30.24 853 25.19 9.8 49.7 31 -6.5 20.4
13:00 1024 30.24 853 25.19 10 50.1 30 -6.7 20
13:05 1024 30.24 853 25.19 10.2 50.3 30 -6.5 20.2
13:10 1024 30.24 853 25.19 10.1 50.2 31 -6.4 20.5
13:15 1024 30.24 853 25.19 10.1 50.2 30 -6.6 20
13:20 1024 30.24 853 25.19 10.4 50.7 30 -6.4 20.5
13:25 1024 30.24 853 25.19 10.4 50.6 30 -6.6 20.2
13:30 1024 30.24 853 25.19 10.8 51.5 29 -6.5 20.3
13:35 1024 30.24 853 25.19 10.6 51 30 -6.3 20.6
13:40 1024 30.24 853 25.19 10.4 50.7 30 -6.3 20.6
13:45 1024 30.24 853 25.19 10.2 50.4 29 -6.8 19.7
13:50 1024 30.24 853 25.19 10.3 50.5 31 -6.3 20.6
13:55 1024 30.24 853 25.19 10.4 50.7 30 -6.4 20.5
14:00 1024 30.24 853 25.19 10.8 51.5 29 -6.6 20.1
14:05 1024 30.24 853 25.19 10.6 51.1 29 -6.8 19.8
14:10 1024 30.24 853 25.19 10.7 51.3 28 -6.9 19.6
14:15 1024 30.24 853 25.19 11 51.7 28 -6.8 19.7
14:20 1024 30.24 853 25.19 10.9 51.5 28 -6.8 19.7
14:25 1024 30.24 853 25.19 10.8 51.5 28 -6.8 19.7
14:30 1024 30.24 853 25.19 10.9 51.7 27 -7.2 19
14:35 1024 30.24 853 25.19 10.8 51.4 27 -7.5 18.5
14:40 1024 30.24 853 25.19 10.8 51.5 27 -7.5 18.5
14:45 1024 30.24 853 25.19 10.9 51.6 27 -7.3 18.9
14:50 1024 30.24 853 25.19 11 51.8 27 -7.5 18.5
14:55 1024 30.24 853 25.19 10.7 51.3 27 -7.4 18.8
15:00 1024 30.24 853 25.19 10.9 51.6 28 -7.1 19.2
15:05 1024 30.24 853 25.19 10.8 51.4 27 -7.6 18.4
15:10 1024 30.24 853 25.19 10.7 51.2 27 -7.7 18.1
15:15 1024 30.24 853 25.19 10.7 51.2 27 -7.7 18.2
15:20 1024 30.24 853 25.19 10.8 51.4 27 -7.6 18.3
15:25 1024 30.24 853 25.19 10.9 51.6 26 -8.1 17.4
15:30 1024 30.24 853 25.19 10.5 50.9 26 -8.2 17.2
15:35 1024 30.24 853 25.19 10.7 51.3 26 -8 17.6
15:40 1024 30.24 853 25.19 10.6 51 26 -8 17.7
15:45 1024 30.24 853 25.19 10.5 50.9 26 -8 17.6
15:50 1024 30.24 854 25.22 10.5 50.9 27 -7.7 18.1
15:55 1024 30.24 854 25.22 10.5 50.9 26 -8.1 17.5
16:00 1024 30.24 853 25.19 10.6 51 26 -7.9 17.8
16:05 1024 30.24 853 25.19 10.4 50.7 27 -7.9 17.8
16:10 1024 30.24 854 25.22 10.7 51.2 27 -7.6 18.3
16:15 1024 30.24 854 25.22 10.5 50.8 28 -7.2 19
16:20 1024 30.24 854 25.22 10.5 50.8 28 -7.3 18.8
16:25 1024 30.24 854 25.22 10.3 50.5 28 -7.3 18.9
16:30 1025 30.27 854 25.22 10.2 50.4 29 -7.2 19.1
16:35 1025 30.27 854 25.22 10 50 30 -6.9 19.6
16:40 1025 30.27 854 25.22 9.6 49.2 30 -7 19.3
16:45 1025 30.27 854 25.22 9.4 48.9 31 -6.9 19.5
16:50 1025 30.27 854 25.22 9.1 48.3 31 -7.1 19.2
16:55 1025 30.27 854 25.22 9 48.1 32 -6.8 19.7
17:00 1025 30.27 854 25.22 8.5 47.4 33 -6.8 19.8
17:05 1025 30.27 854 25.22 8.3 46.9 34 -6.8 19.8
17:10 1025 30.27 854 25.22 8.1 46.5 35 -6.6 20.1
17:15 1025 30.27 854 25.22 7.9 46.2 35 -6.7 19.9
17:20 1025 30.27 854 25.22 7.8 46 35 -6.8 19.8
17:25 1025 30.27 854 25.22 7.5 45.4 37 -6.1 21
17:30 1025 30.27 854 25.22 6.5 43.7 42 -5.6 21.9
17:35 1025 30.27 854 25.22 6 42.9 40 -6.6 20.2
17:40 1025 30.27 854 25.22 6.2 43.2 39 -6.6 20.1
17:45 1025 30.27 854 25.22 6.1 43 43 -5.4 22.3
17:50 1025 30.27 854 25.22 5 41.1 47 -5.5 22.2
17:55 1025 30.27 854 25.22 4.5 40.1 49 -5.3 22.4
18:00 1025 30.27 854 25.22 4.2 39.5 50 -5.4 22.2
18:05 1025 30.27 854 25.22 4 39.1 49 -5.7 21.7
18:10 1025 30.27 854 25.22 3.8 38.9 50 -5.7 21.8
18:15 1025 30.27 854 25.22 3.7 38.7 50 -5.7 21.7
18:20 1025 30.27 854 25.22 3.6 38.5 51 -5.6 21.9
18:25 1025 30.27 854 25.22 3.5 38.3 51 -5.6 21.9
18:30 1025 30.27 854 25.22 3.3 38 52 -5.5 22.1
18:35 1025 30.27 854 25.22 3.2 37.7 53 -5.6 21.9
18:40 1025 30.27 854 25.22 3.1 37.5 53 -5.7 21.8
18:45 1025 30.27 854 25.22 3 37.4 53 -5.6 22
18:50 1025 30.27 854 25.22 2.9 37.2 54 -5.6 21.9
18:55 1025 30.27 854 25.22 2.8 37.1 54 -5.6 21.9
19:00 1025 30.27 854 25.22 2.8 37.1 54 -5.7 21.8
19:05 1025 30.27 854 25.22 2.7 36.8 54 -5.6 21.9
19:10 1025 30.27 854 25.22 2.6 36.6 54 -5.8 21.6
19:15 1025 30.27 854 25.22 2.4 36.4 55 -5.8 21.6
19:20 1025 30.27 854 25.22 2.3 36.1 55 -5.8 21.6
19:25 1025 30.27 854 25.22 2.2 35.9 55 -5.9 21.4
19:30 1025 30.27 854 25.22 2 35.6 56 -5.8 21.6
19:35 1025 30.27 854 25.22 1.7 35.1 58 -5.7 21.7
19:40 1025 30.27 854 25.22 1.5 34.8 57 -6.1 21.1
19:45 1025 30.27 854 25.22 1.7 35.1 55 -6.4 20.5
19:50 1025 30.27 854 25.22 2.1 35.8 54 -6.3 20.7
19:55 1025 30.27 854 25.22 2.1 35.8 54 -6.2 20.8
20:00 1025 30.27 855 25.25 2.1 35.7 54 -6.3 20.7
20:05 1025 30.27 855 25.25 2 35.6 54 -6.3 20.7
20:10 1025 30.27 855 25.25 2.1 35.8 54 -6.4 20.5
20:15 1025 30.27 855 25.25 2.3 36.1 53 -6.4 20.6
20:20 1025 30.27 855 25.25 2.5 36.6 51 -6.6 20.2
20:25 1026 30.3 855 25.25 2.6 36.7 53 -6.1 21
20:30 1026 30.3 855 25.25 2.3 36.2 54 -6.2 20.9
20:35 1026 30.3 855 25.25 2.1 35.7 54 -6.3 20.7
20:40 1026 30.3 855 25.25 2 35.7 53 -6.6 20.2
20:45 1026 30.3 855 25.25 2.3 36.2 53 -6.4 20.5
20:50 1026 30.3 855 25.25 2.1 35.8 53 -6.4 20.5
20:55 1026 30.3 855 25.25 2 35.7 54 -6.3 20.6
21:00 1026 30.3 855 25.25 2 35.5 54 -6.3 20.7
21:05 1026 30.3 855 25.25 2 35.6 53 -6.5 20.4
21:10 1026 30.3 855 25.25 2 35.6 54 -6.4 20.5
21:15 1026 30.3 855 25.25 2.1 35.7 53 -6.6 20.1
21:20 1026 30.3 855 25.25 2.1 35.8 53 -6.4 20.5
21:25 1026 30.3 855 25.25 2.1 35.8 53 -6.5 20.4
21:30 1026 30.3 855 25.25 2 35.6 53 -6.5 20.3
21:35 1026 30.3 855 25.25 1.8 35.3 55 -6.3 20.6
21:40 1026 30.3 855 25.25 1.8 35.2 54 -6.5 20.2
21:45 1026 30.3 855 25.25 1.7 35.1 55 -6.3 20.7
21:50 1026 30.3 855 25.25 1.5 34.7 56 -6.4 20.4
21:55 1026 30.3 855 25.25 1.4 34.5 56 -6.5 20.3
22:00 1026 30.3 855 25.25 1.5 34.7 54 -6.7 19.9
22:05 1026 30.3 855 25.25 1.8 35.2 53 -6.8 19.7
22:10 1026 30.3 855 25.25 1.9 35.4 53 -6.8 19.8
22:15 1026 30.3 855 25.25 1.9 35.5 52 -7 19.4
22:20 1026 30.3 855 25.25 2.1 35.8 51 -7 19.4
22:25 1026 30.3 855 25.25 2.3 36.2 50 -7 19.3
22:30 1026 30.3 855 25.25 2.4 36.4 49 -7.1 19.2
22:35 1026 30.3 855 25.25 2.5 36.5 50 -7 19.4
22:40 1026 30.3 855 25.25 2.4 36.3 50 -7.1 19.3
22:45 1026 30.3 855 25.25 1.7 35.1 53 -6.9 19.6
22:50 1026 30.3 855 25.25 1.3 34.3 54 -7.1 19.2
22:55 1026 30.3 855 25.25 0.9 33.5 55 -7.1 19.3
23:00 1026 30.3 855 25.25 0.5 32.9 56 -7.2 19.1
23:05 1026 30.3 855 25.25 0.5 33 55 -7.4 18.7
23:10 1026 30.3 855 25.25 0.7 33.2 54 -7.5 18.5
23:15 1026 30.3 855 25.25 0.9 33.6 54 -7.3 18.8
23:20 1026 30.3 855 25.25 0.5 32.9 56 -7.3 18.9
23:25 1026 30.3 855 25.25 0.4 32.7 56 -7.5 18.5
23:30 1026 30.3 855 25.25 0.5 32.9 53 -7.9 17.7
23:35 1026 30.3 855 25.25 0.7 33.2 56 -7.2 19.1
23:40 1026 30.3 855 25.25 0.4 32.8 56 -7.3 18.9
23:45 1026 30.3 855 25.25 0.4 32.7 56 -7.3 18.8
23:50 1026 30.3 855 25.25 0.4 32.7 56 -7.3 18.9
23:55 1025 30.27 855 25.25 0.4 32.6 57 -7.2 19
24:00 1025 30.27 855 25.25 0.2 32.3 58 -7.2 19.1